createdAt,value
2022-08-01T00:00:28.580Z,15.30
2022-08-01T00:05:35.465Z,15.10
2022-08-01T00:10:40.835Z,14.80
2022-08-01T00:15:53.797Z,14.80
2022-08-01T00:20:52.578Z,15.00
2022-08-01T00:25:58.336Z,15.10
2022-08-01T00:31:05.655Z,15.40
2022-08-01T00:36:13.085Z,15.30
2022-08-01T00:41:19.259Z,15.30
2022-08-01T00:46:24.133Z,15.30
2022-08-01T00:51:29.978Z,15.50
2022-08-01T00:56:36.424Z,15.30
2022-08-01T01:01:46.490Z,15.50
2022-08-01T01:07:10.890Z,15.50
2022-08-01T01:12:38.484Z,15.60
2022-08-01T01:17:55.754Z,15.70
2022-08-01T01:23:30.321Z,15.80
2022-08-01T01:28:42.470Z,15.80
2022-08-01T01:33:48.985Z,15.50
2022-08-01T01:38:55.717Z,15.60
2022-08-01T01:44:03.301Z,15.60
2022-08-01T01:49:12.233Z,15.30
2022-08-01T01:54:18.733Z,15.40
2022-08-01T01:59:25.775Z,15.40
2022-08-01T02:04:30.737Z,15.30
2022-08-01T02:09:37.964Z,15.20
2022-08-01T02:14:46.438Z,15.10
2022-08-01T02:19:52.254Z,15.20
2022-08-01T02:25:01.334Z,15.30
2022-08-01T02:30:10.225Z,15.50
2022-08-01T02:35:18.338Z,15.50
2022-08-01T02:40:24.357Z,15.50
2022-08-01T02:45:30.847Z,15.60
2022-08-01T02:50:38.000Z,15.70
2022-08-01T02:55:46.511Z,15.70
2022-08-01T03:00:52.678Z,15.80
2022-08-01T03:05:59.798Z,15.80
2022-08-01T03:11:06.788Z,15.70
2022-08-01T03:16:13.931Z,15.70
2022-08-01T03:21:22.269Z,15.80
2022-08-01T03:26:33.593Z,15.90
2022-08-01T03:31:41.699Z,15.90
2022-08-01T03:36:51.354Z,15.80
2022-08-01T03:42:02.277Z,15.90
2022-08-01T03:47:12.585Z,16.00
2022-08-01T03:52:18.520Z,16.00
2022-08-01T03:57:36.687Z,16.10
2022-08-01T04:02:32.305Z,16.10
2022-08-01T04:07:37.556Z,16.20
2022-08-01T04:12:42.512Z,16.30
2022-08-01T04:17:47.526Z,16.40
2022-08-01T04:22:52.971Z,16.40
2022-08-01T04:28:00.835Z,16.50
2022-08-01T04:33:08.717Z,16.60
2022-08-01T04:38:18.186Z,16.70
2022-08-01T04:43:24.683Z,16.80
2022-08-01T04:48:30.929Z,16.90
2022-08-01T04:53:36.545Z,17.00
2022-08-01T04:58:45.776Z,17.10
2022-08-01T05:03:51.882Z,17.10
2022-08-01T05:08:59.080Z,17.20
2022-08-01T05:14:05.729Z,17.30
2022-08-01T05:19:11.818Z,17.50
2022-08-01T05:24:16.706Z,17.60
2022-08-01T05:29:22.222Z,17.80
2022-08-01T05:34:27.813Z,18.00
2022-08-01T05:39:33.384Z,18.20
2022-08-01T05:44:38.518Z,18.60
2022-08-01T05:49:43.691Z,18.80
2022-08-01T05:54:48.849Z,19.00
2022-08-01T05:59:54.437Z,19.20
2022-08-01T06:05:00.212Z,19.40
2022-08-01T06:10:06.160Z,19.50
2022-08-01T06:15:12.779Z,19.60
2022-08-01T06:20:17.995Z,19.80
2022-08-01T06:25:23.502Z,19.90
2022-08-01T06:30:29.157Z,19.80
2022-08-01T06:35:35.687Z,19.90
2022-08-01T06:40:41.809Z,20.00
2022-08-01T06:45:47.159Z,20.00
2022-08-01T06:50:54.483Z,20.00
2022-08-01T06:56:00.114Z,20.30
2022-08-01T07:01:09.905Z,20.50
2022-08-01T07:06:16.839Z,20.70
2022-08-01T07:11:24.039Z,20.80
2022-08-01T07:16:30.127Z,20.70
2022-08-01T07:21:39.188Z,20.40
2022-08-01T07:26:53.218Z,20.40
2022-08-01T07:31:54.249Z,20.40
2022-08-01T07:36:59.793Z,20.50
2022-08-01T07:42:07.423Z,20.70
2022-08-01T07:47:11.948Z,20.80
2022-08-01T07:52:17.017Z,21.00
2022-08-01T07:57:22.126Z,21.00
2022-08-01T08:02:27.580Z,21.20
2022-08-01T08:07:33.151Z,21.50
2022-08-01T08:12:39.729Z,21.70
2022-08-01T08:17:45.303Z,22.40
2022-08-01T08:22:53.122Z,22.10
2022-08-01T08:27:58.151Z,22.10
2022-08-01T08:33:03.317Z,22.10
2022-08-01T08:38:09.022Z,21.90
2022-08-01T08:43:16.843Z,21.80
2022-08-01T08:48:22.404Z,21.80
2022-08-01T08:53:34.538Z,21.90
2022-08-01T08:58:39.186Z,22.10
2022-08-01T09:03:44.330Z,22.30
2022-08-01T09:08:50.098Z,22.20
2022-08-01T09:14:21.234Z,22.20
2022-08-01T09:19:40.231Z,22.30
2022-08-01T09:24:34.649Z,22.50
2022-08-01T09:29:41.133Z,22.50
2022-08-01T09:34:47.243Z,23.10
2022-08-01T09:39:55.216Z,23.00
2022-08-01T09:45:02.887Z,22.70
2022-08-01T09:50:11.241Z,22.70
2022-08-01T09:55:19.586Z,22.80
2022-08-01T10:00:44.464Z,23.20
2022-08-01T10:05:36.987Z,23.10
2022-08-01T10:10:43.184Z,23.70
2022-08-01T10:15:50.925Z,23.80
2022-08-01T10:20:57.868Z,23.60
2022-08-01T10:26:04.505Z,23.50
2022-08-01T10:31:12.645Z,23.30
2022-08-01T10:36:21.596Z,23.60
2022-08-01T10:41:30.795Z,23.70
2022-08-01T10:46:41.049Z,23.50
2022-08-01T10:51:52.965Z,23.80
2022-08-01T10:56:57.458Z,24.30
2022-08-01T11:02:05.624Z,24.50
2022-08-01T11:07:18.305Z,24.80
2022-08-01T11:12:27.436Z,24.90
2022-08-01T11:17:43.479Z,24.70
2022-08-01T11:23:07.283Z,24.10
2022-08-01T11:28:29.161Z,23.60
2022-08-01T11:33:47.115Z,23.40
2022-08-01T11:39:02.038Z,23.20
2022-08-01T11:44:12.887Z,23.30
2022-08-01T11:49:36.110Z,23.60
2022-08-01T11:54:58.843Z,23.40
2022-08-01T12:00:08.763Z,24.00
2022-08-01T12:05:17.629Z,24.50
2022-08-01T12:10:25.317Z,24.70
2022-08-01T12:15:38.711Z,25.10
2022-08-01T12:20:56.608Z,24.30
2022-08-01T12:25:55.177Z,23.80
2022-08-01T12:31:00.487Z,23.90
2022-08-01T12:36:05.943Z,24.60
2022-08-01T12:41:13.159Z,25.50
2022-08-01T12:46:18.401Z,24.80
2022-08-01T12:51:23.682Z,24.10
2022-08-01T12:56:35.903Z,25.10
2022-08-01T13:01:43.082Z,25.90
2022-08-01T13:06:49.576Z,26.00
2022-08-01T13:12:04.307Z,26.30
2022-08-01T13:17:04.700Z,26.20
2022-08-01T13:22:12.614Z,26.10
2022-08-01T13:27:24.141Z,26.50
2022-08-01T13:32:31.674Z,26.80
2022-08-01T13:37:39.558Z,25.90
2022-08-01T13:42:45.622Z,26.10
2022-08-01T13:48:03.536Z,26.00
2022-08-01T13:52:59.014Z,26.30
2022-08-01T13:58:05.308Z,27.20
2022-08-01T14:03:11.800Z,26.70
2022-08-01T14:08:18.008Z,25.20
2022-08-01T14:13:23.884Z,24.40
2022-08-01T14:18:29.243Z,24.40
2022-08-01T14:23:34.601Z,24.50
2022-08-01T14:28:40.826Z,25.30
2022-08-01T14:33:46.063Z,25.10
2022-08-01T14:38:51.247Z,25.60
2022-08-01T14:43:57.036Z,25.10
2022-08-01T14:49:01.347Z,25.20
2022-08-01T14:54:08.288Z,24.50
2022-08-01T14:59:21.816Z,23.90
2022-08-01T15:04:22.649Z,23.80
2022-08-01T15:09:27.062Z,23.80
2022-08-01T15:14:51.163Z,23.60
2022-08-01T15:19:58.901Z,23.40
2022-08-01T15:25:05.500Z,23.50
2022-08-01T15:30:13.136Z,23.70
2022-08-01T15:35:18.163Z,23.60
2022-08-01T15:40:23.673Z,23.40
2022-08-01T15:50:35.954Z,22.80
2022-08-01T15:55:41.169Z,22.80
2022-08-01T16:00:46.514Z,23.20
2022-08-01T16:05:51.708Z,23.40
2022-08-01T16:10:56.872Z,23.60
2022-08-01T16:16:03.851Z,23.40
2022-08-01T16:21:11.413Z,23.40
2022-08-01T16:26:27.894Z,23.60
2022-08-01T16:31:36.632Z,23.60
2022-08-01T16:36:30.985Z,23.90
2022-08-01T16:41:37.634Z,23.90
2022-08-01T16:46:45.066Z,23.80
2022-08-01T16:51:52.343Z,23.20
2022-08-01T16:57:07.795Z,23.20
2022-08-01T17:02:06.834Z,23.10
2022-08-01T17:07:12.566Z,23.00
2022-08-01T17:12:22.319Z,22.70
2022-08-01T17:17:24.942Z,22.80
2022-08-01T17:22:30.695Z,22.50
2022-08-01T17:27:36.366Z,22.20
2022-08-01T17:32:42.766Z,22.20
2022-08-01T17:37:47.949Z,22.20
2022-08-01T17:42:53.721Z,21.90
2022-08-01T17:48:00.210Z,21.70
2022-08-01T17:53:05.461Z,21.70
2022-08-01T17:58:13.063Z,21.60
2022-08-01T18:03:29.981Z,21.60
2022-08-01T18:08:30.260Z,21.40
2022-08-01T18:13:35.884Z,21.40
2022-08-01T18:18:42.205Z,21.40
2022-08-01T18:23:51.817Z,21.30
2022-08-01T18:28:51.989Z,21.30
2022-08-01T18:33:56.786Z,21.20
2022-08-01T18:39:04.791Z,21.10
2022-08-01T18:44:12.422Z,20.90
2022-08-01T18:49:17.377Z,20.70
2022-08-01T18:54:24.809Z,20.30
2022-08-01T18:59:29.994Z,20.20
2022-08-01T19:04:34.949Z,19.70
2022-08-01T19:09:40.680Z,19.80
2022-08-01T19:14:45.738Z,19.70
2022-08-01T19:19:54.328Z,19.60
2022-08-01T19:25:00.265Z,19.70
2022-08-01T19:30:06.720Z,19.20
2022-08-01T19:35:15.187Z,19.30
2022-08-01T19:40:26.834Z,19.50
2022-08-01T19:45:31.453Z,19.30
2022-08-01T19:50:40.165Z,19.50
2022-08-01T19:55:47.940Z,19.30
2022-08-01T20:00:54.229Z,19.40
2022-08-01T20:06:04.179Z,19.30
2022-08-01T20:11:14.640Z,19.30
2022-08-01T20:16:20.125Z,19.20
2022-08-01T20:21:28.253Z,19.30
2022-08-01T20:26:36.709Z,19.20
2022-08-01T20:31:44.267Z,19.10
2022-08-01T20:36:56.672Z,19.10
2022-08-01T20:42:02.757Z,18.90
2022-08-01T20:47:08.670Z,19.00
2022-08-01T20:52:15.548Z,19.00
2022-08-01T20:57:25.399Z,18.60
2022-08-01T21:02:42.173Z,18.30
2022-08-01T21:07:52.835Z,18.50
2022-08-01T21:13:05.942Z,18.20
2022-08-01T21:18:16.362Z,18.20
2022-08-01T21:23:36.760Z,18.30
2022-08-01T21:28:53.867Z,18.40
2022-08-01T21:34:02.104Z,18.40
2022-08-01T21:39:00.579Z,18.40
2022-08-01T21:44:06.206Z,18.30
2022-08-01T21:49:13.847Z,18.20
2022-08-01T21:54:42.296Z,18.00
2022-08-01T22:00:07.659Z,18.30
2022-08-01T22:05:15.385Z,18.20
2022-08-01T22:10:21.477Z,18.20
2022-08-01T22:15:44.835Z,18.30
2022-08-01T22:20:35.056Z,18.00
2022-08-01T22:25:42.510Z,17.90
2022-08-01T22:30:51.412Z,18.00
2022-08-01T22:35:58.319Z,18.10
2022-08-01T22:41:06.958Z,18.00
2022-08-01T22:46:26.231Z,17.80
2022-08-01T22:51:36.945Z,17.60
2022-08-01T22:56:44.767Z,17.60
2022-08-01T23:01:51.626Z,17.60
2022-08-01T23:07:00.072Z,17.70
2022-08-01T23:12:06.418Z,17.70
2022-08-01T23:17:26.527Z,17.40
2022-08-01T23:22:23.400Z,17.60
2022-08-01T23:27:54.285Z,17.40
2022-08-01T23:32:36.672Z,17.20
2022-08-01T23:37:42.759Z,17.10
2022-08-01T23:42:48.423Z,17.20
2022-08-01T23:47:53.814Z,17.20
2022-08-01T23:52:59.037Z,16.90
2022-08-01T23:58:05.818Z,16.40
